Time;durP1;ratioP1;P1;durP2;ratioP2;P2;SDS_P1;SDS_P2;PMS_P1;PMS_P2;Temp;Humidity;BMP_temperature;BMP_pressure;BME280_temperature;BME280_humidity;BME280_pressure;Samples;Min_cycle;Max_cycle;Signal;HPM_P1;HPM_P2
2022/10/15 00:02:23;;;;;;;9.47;3.60;;;;;;;19.52;nan;101436.06;6099964;23;20410;-91
2022/10/15 00:05:35;;;;;;;14.13;3.90;;;;;;;19.51;nan;101428.00;6054057;23;20578;-90
2022/10/15 00:08:20;;;;;;;5.47;3.70;;;;;;;19.41;nan;101411.06;6123192;23;20901;-90
2022/10/15 00:10:51;;;;;;;7.23;3.70;;;;;;;19.32;nan;101403.06;6195660;23;20406;-90
2022/10/15 00:13:33;;;;;;;9.27;4.30;;;;;;;19.43;nan;101417.22;6173550;23;20417;-91
2022/10/15 00:16:09;;;;;;;6.80;3.60;;;;;;;19.44;nan;101422.50;6195515;23;20406;-90
2022/10/15 00:18:48;;;;;;;11.70;4.20;;;;;;;19.31;nan;101409.69;6170539;23;20486;-91
2022/10/15 00:21:40;;;;;;;13.07;3.90;;;;;;;19.41;nan;101417.44;6201225;23;20417;-91
2022/10/15 00:24:24;;;;;;;12.00;3.53;;;;;;;19.37;nan;101404.28;6099904;23;20736;-90
2022/10/15 00:27:19;;;;;;;15.80;3.70;;;;;;;19.38;nan;101406.84;6083170;23;20413;-91
2022/10/15 00:30:14;;;;;;;7.60;3.57;;;;;;;19.27;nan;101394.59;6108499;23;20476;-91
2022/10/15 00:32:51;;;;;;;8.43;4.07;;;;;;;19.31;nan;101390.28;6109599;23;20416;-90
2022/10/15 00:35:42;;;;;;;11.27;4.00;;;;;;;19.26;nan;101381.81;6087777;23;20418;-91
2022/10/15 00:38:11;;;;;;;11.50;3.70;;;;;;;19.24;nan;101378.44;6085783;23;20409;-90
2022/10/15 00:41:13;;;;;;;8.90;3.77;;;;;;;19.32;nan;101391.13;6083096;23;20492;-91
2022/10/15 00:44:42;;;;;;;6.30;3.10;;;;;;;19.35;nan;101387.03;5999348;23;20389;-91
2022/10/15 00:47:36;;;;;;;6.70;3.70;;;;;;;19.33;nan;101370.66;6082453;23;20413;-90
2022/10/15 00:50:33;;;;;;;8.83;3.90;;;;;;;19.22;nan;101369.53;6073428;23;20451;-91
2022/10/15 00:53:47;;;;;;;5.93;3.20;;;;;;;19.20;nan;101360.63;6020755;23;20392;-91
2022/10/15 00:57:00;;;;;;;11.77;3.80;;;;;;;19.29;nan;101375.81;5916567;24;20413;-91
2022/10/15 00:59:57;;;;;;;9.83;4.37;;;;;;;19.20;nan;101354.22;5942122;24;20946;-91
2022/10/15 01:02:48;;;;;;;6.97;3.53;;;;;;;19.21;nan;101370.63;5923025;24;20429;-91
2022/10/15 01:05:38;;;;;;;12.63;3.40;;;;;;;19.24;nan;101374.84;5942812;24;20428;-91
2022/10/15 01:08:26;;;;;;;11.47;3.87;;;;;;;19.14;nan;101361.53;5922849;24;20482;-91
2022/10/15 01:11:48;;;;;;;6.47;3.20;;;;;;;19.11;nan;101350.94;5924555;24;20383;-91
2022/10/15 01:17:55;;;;;;;13.03;3.53;;;;;;;19.06;nan;101348.00;5950163;24;20419;-91
2022/10/15 01:21:42;;;;;;;;;;;;;;;;;;;;;
2022/10/15 01:32:59;;;;;;;10.33;4.00;;;;;;;19.03;nan;101361.50;5955172;24;20386;-91
2022/10/15 02:11:27;;;;;;;6.63;3.20;;;;;;;18.80;nan;101313.22;6217819;23;20426;-92
2022/10/15 02:14:09;;;;;;;11.70;3.97;;;;;;;18.68;nan;101295.69;6167288;23;20415;-92
2022/10/15 02:16:58;;;;;;;8.13;3.00;;;;;;;18.72;nan;101305.22;6166622;23;20419;-93
2022/10/15 02:19:29;;;;;;;10.50;2.93;;;;;;;18.63;nan;101287.28;6167204;23;20411;-92
2022/10/15 02:22:35;;;;;;;10.80;3.40;;;;;;;18.61;nan;101300.50;6191480;23;20415;-92
2022/10/15 02:25:22;;;;;;;9.70;3.40;;;;;;;18.57;nan;101304.78;6155704;23;20425;-92
2022/10/15 02:28:11;;;;;;;7.33;3.37;;;;;;;18.47;nan;101302.53;6132819;23;20967;-92
2022/10/15 02:30:54;;;;;;;;;;;;;;;;;;;;;
2022/10/15 02:33:23;;;;;;;10.10;3.40;;;;;;;18.36;nan;101286.72;6118201;23;20409;-92
2022/10/15 02:35:51;;;;;;;8.37;3.60;;;;;;;18.35;nan;101290.56;6130261;23;20791;-92
2022/10/15 02:38:22;;;;;;;6.00;3.23;;;;;;;18.25;nan;101279.22;6130902;23;20477;-91
2022/10/15 02:40:56;;;;;;;11.83;3.13;;;;;;;18.28;nan;101289.78;6130861;23;20497;-92
2022/10/15 02:43:36;;;;;;;9.27;4.07;;;;;;;18.29;nan;101297.03;6085207;23;20416;-91
2022/10/15 02:46:06;;;;;;;16.53;3.80;;;;;;;18.20;nan;101281.81;6107638;23;20488;-92
2022/10/15 02:48:35;;;;;;;11.87;3.53;;;;;;;18.14;nan;101279.97;6101880;23;21041;-92
2022/10/15 02:51:20;;;;;;;5.50;3.30;;;;;;;18.17;nan;101279.50;6129684;23;20436;-93
2022/10/15 02:53:49;;;;;;;6.70;2.93;;;;;;;18.14;nan;101274.44;6106948;23;20497;-92
2022/10/15 02:56:18;;;;;;;10.73;3.17;;;;;;;18.14;nan;101268.91;6131083;23;20413;-92
2022/10/15 02:58:50;;;;;;;7.50;3.37;;;;;;;18.07;nan;101260.69;6106893;23;20773;-92
2022/10/15 03:01:18;;;;;;;6.20;3.00;;;;;;;18.08;nan;101264.31;6150140;23;20404;-92
2022/10/15 03:03:46;;;;;;;5.73;3.60;;;;;;;18.10;nan;101267.66;6189575;23;20439;-91
2022/10/15 03:06:15;;;;;;;7.07;3.07;;;;;;;18.15;nan;101279.75;6142279;23;20456;-91
2022/10/15 03:08:44;;;;;;;6.10;3.07;;;;;;;18.07;nan;101265.38;6142445;23;20491;-91
2022/10/15 03:11:35;;;;;;;8.33;2.93;;;;;;;17.98;nan;101258.44;6142799;23;20936;-91
2022/10/15 03:14:09;;;;;;;7.23;3.00;;;;;;;18.03;nan;101269.69;6020499;23;20424;-91
2022/10/15 03:16:38;;;;;;;5.13;2.90;;;;;;;17.92;nan;101252.75;5996313;23;20415;-90
2022/10/15 03:19:08;;;;;;;7.80;2.90;;;;;;;18.03;nan;101269.69;6042768;23;20507;-91
2022/10/15 03:21:41;;;;;;;8.17;3.47;;;;;;;18.01;nan;101258.84;6020175;23;20416;-91
2022/10/15 03:24:10;;;;;;;7.10;3.40;;;;;;;17.98;nan;101251.00;6048724;23;20448;-89
2022/10/15 03:26:39;;;;;;;7.60;3.20;;;;;;;17.97;nan;101249.31;6024164;23;20411;-89
2022/10/15 03:29:07;;;;;;;7.80;2.90;;;;;;;17.98;nan;101250.16;6095259;23;20553;-89
2022/10/15 03:31:35;;;;;;;7.43;2.93;;;;;;;18.07;nan;101254.31;6071998;23;20411;-90
2022/10/15 03:34:03;;;;;;;8.07;2.90;;;;;;;18.14;nan;101246.75;6024559;23;20478;-89
2022/10/15 03:36:30;;;;;;;7.27;2.77;;;;;;;18.22;nan;101254.78;6024299;23;20490;-89
2022/10/15 03:38:58;;;;;;;4.53;2.70;;;;;;;18.23;nan;101243.47;6024593;23;20415;-89
2022/10/15 03:41:27;;;;;;;11.63;3.43;;;;;;;18.31;nan;101250.59;6024550;23;20388;-90
2022/10/15 03:44:06;;;;;;;9.70;3.40;;;;;;;18.35;nan;101251.81;6095216;23;20502;-90
2022/10/15 03:46:37;;;;;;;6.33;3.20;;;;;;;18.37;nan;101257.13;6025451;23;20498;-90
2022/10/15 03:49:05;;;;;;;8.90;3.13;;;;;;;18.38;nan;101251.38;6071386;23;20539;-90
2022/10/15 03:51:33;;;;;;;7.70;2.70;;;;;;;18.29;nan;101238.91;6088961;23;20986;-90
2022/10/15 03:54:01;;;;;;;5.87;2.90;;;;;;;18.37;nan;101259.91;6152034;23;20483;-90
2022/10/15 03:56:30;;;;;;;8.60;2.93;;;;;;;18.41;nan;101256.44;6140892;23;20773;-90
2022/10/15 03:58:57;;;;;;;11.47;3.23;;;;;;;18.34;nan;101241.81;6165692;23;20492;-90
2022/10/15 04:01:25;;;;;;;7.47;3.03;;;;;;;18.36;nan;101241.59;6141128;23;20406;-90
2022/10/15 04:03:53;;;;;;;11.80;3.60;;;;;;;18.29;nan;101234.22;6173477;23;20434;-90
2022/10/15 04:06:21;;;;;;;12.93;3.30;;;;;;;18.36;nan;101241.59;6195903;23;20545;-90
2022/10/15 04:08:49;;;;;;;9.80;3.90;;;;;;;18.27;nan;101235.56;6195712;23;20450;-90
2022/10/15 04:11:16;;;;;;;12.53;3.20;;;;;;;18.30;nan;101237.81;6195066;23;20469;-89
2022/10/15 04:13:49;;;;;;;5.77;3.30;;;;;;;18.35;nan;101243.53;6082359;23;20781;-89
2022/10/15 04:16:17;;;;;;;10.60;3.60;;;;;;;18.34;nan;101246.50;6129589;23;20405;-90
2022/10/15 04:18:46;;;;;;;6.93;3.20;;;;;;;18.32;nan;101240.38;6081840;23;20409;-90
2022/10/15 04:21:15;;;;;;;10.50;3.43;;;;;;;18.33;nan;101255.91;6130164;23;20410;-90
2022/10/15 04:23:44;;;;;;;5.97;2.90;;;;;;;18.30;nan;101251.66;6105570;23;20512;-90
2022/10/15 04:26:27;;;;;;;10.27;3.53;;;;;;;18.30;nan;101254.44;6081962;23;20492;-90
2022/10/15 04:28:57;;;;;;;8.37;3.17;;;;;;;18.31;nan;101245.06;6105311;23;20409;-91
2022/10/15 04:31:25;;;;;;;9.97;3.23;;;;;;;18.27;nan;101238.31;6161156;23;20434;-91
2022/10/15 04:34:07;;;;;;;7.40;3.40;;;;;;;18.20;nan;101232.00;6195688;23;20452;-91
2022/10/15 04:36:35;;;;;;;5.90;2.80;;;;;;;18.21;nan;101244.78;6220851;23;21000;-91
2022/10/15 04:39:03;;;;;;;15.70;4.33;;;;;;;18.22;nan;101238.16;6196172;23;20494;-91
2022/10/15 04:41:52;;;;;;;8.97;3.60;;;;;;;18.28;nan;101251.06;6221832;23;20486;-91
2022/10/15 04:44:22;;;;;;;14.80;3.77;;;;;;;18.20;nan;101229.25;6100411;23;20411;-89
2022/10/15 04:46:50;;;;;;;8.33;2.77;;;;;;;18.23;nan;101242.63;6124026;23;21009;-90
2022/10/15 04:49:18;;;;;;;9.70;3.60;;;;;;;18.23;nan;101253.69;6076802;23;20478;-91
2022/10/15 04:51:45;;;;;;;8.33;3.37;;;;;;;18.11;nan;101234.25;6076193;23;20776;-90
2022/10/15 04:54:13;;;;;;;7.23;3.00;;;;;;;18.12;nan;101235.09;5990747;23;20843;-89
2022/10/15 04:56:43;;;;;;;8.40;3.23;;;;;;;18.10;nan;101231.69;5990578;23;20912;-90
2022/10/15 04:59:13;;;;;;;11.23;3.47;;;;;;;18.10;nan;101232.53;6013901;23;20924;-89
2022/10/15 05:01:42;;;;;;;10.00;4.23;;;;;;;18.14;nan;101244.84;6036848;23;20404;-90
2022/10/15 05:04:11;;;;;;;6.87;2.67;;;;;;;18.11;nan;101230.63;5956499;23;20460;-91
2022/10/15 05:06:39;;;;;;;9.80;2.63;;;;;;;18.15;nan;101234.63;5985837;23;20446;-90
2022/10/15 05:09:08;;;;;;;7.83;3.13;;;;;;;18.18;nan;101239.69;6039267;23;20494;-90
2022/10/15 05:11:39;;;;;;;14.80;3.33;;;;;;;18.17;nan;101246.31;6052897;23;20510;-90
2022/10/15 05:14:25;;;;;;;8.40;2.53;;;;;;;18.13;nan;101243.16;6083282;23;20968;-90
2022/10/15 05:16:55;;;;;;;8.00;2.70;;;;;;;18.20;nan;101256.91;6076070;23;20862;-90
2022/10/15 05:19:30;;;;;;;10.93;3.10;;;;;;;18.11;nan;101233.38;6121395;23;20490;-90
2022/10/15 05:21:58;;;;;;;12.53;3.37;;;;;;;18.13;nan;101247.84;6189532;23;20774;-90
2022/10/15 05:24:26;;;;;;;8.73;2.67;;;;;;;18.17;nan;101257.38;6075825;23;20410;-90
2022/10/15 05:26:54;;;;;;;10.30;2.63;;;;;;;18.15;nan;101254.84;6052501;23;20481;-90
2022/10/15 05:29:22;;;;;;;6.77;2.50;;;;;;;18.14;nan;101250.38;5940450;23;20424;-89
2022/10/15 05:31:52;;;;;;;11.33;3.27;;;;;;;18.12;nan;101247.00;5985951;23;20520;-89
2022/10/15 05:34:21;;;;;;;11.90;3.03;;;;;;;18.04;nan;101239.03;5963054;23;20992;-90
2022/10/15 05:36:49;;;;;;;11.30;3.00;;;;;;;18.11;nan;101258.28;6008713;23;20531;-90
2022/10/15 05:39:16;;;;;;;14.90;3.27;;;;;;;18.00;nan;101242.47;5962496;23;20470;-89
2022/10/15 05:41:44;;;;;;;10.00;2.70;;;;;;;18.04;nan;101263.06;5962489;23;20412;-90
2022/10/15 05:44:12;;;;;;;13.70;3.70;;;;;;;18.07;nan;101263.47;6008450;23;20414;-90
2022/10/15 05:46:45;;;;;;;8.60;2.87;;;;;;;18.04;nan;101261.16;5986723;23;20477;-90
2022/10/15 05:49:13;;;;;;;12.70;3.90;;;;;;;17.98;nan;101256.53;5894501;24;20415;-90
2022/10/15 05:51:41;;;;;;;6.27;3.40;;;;;;;17.90;nan;101249.38;5953544;24;20526;-91
2022/10/15 05:54:10;;;;;;;7.60;2.83;;;;;;;17.98;nan;101255.69;5994701;23;20483;-90
2022/10/15 05:56:38;;;;;;;12.63;3.20;;;;;;;17.89;nan;101247.72;6018559;23;20439;-91
2022/10/15 05:59:06;;;;;;;7.30;3.30;;;;;;;17.98;nan;101252.91;6018857;23;20451;-90
2022/10/15 06:01:36;;;;;;;6.60;2.77;;;;;;;17.94;nan;101256.16;6042858;23;20504;-90
2022/10/15 06:04:04;;;;;;;10.10;3.77;;;;;;;17.86;nan;101239.88;6067117;23;20915;-91
2022/10/15 06:06:34;;;;;;;6.43;3.70;;;;;;;17.82;nan;101235.03;6043952;23;20699;-90
2022/10/15 06:09:02;;;;;;;11.70;4.07;;;;;;;17.85;nan;101246.47;6106798;23;20416;-90
2022/10/15 06:11:29;;;;;;;11.27;3.80;;;;;;;17.86;nan;101256.47;6043883;23;20514;-90
2022/10/15 06:13:58;;;;;;;9.70;3.63;;;;;;;17.75;nan;101237.84;6020844;23;20480;-90
2022/10/15 06:16:26;;;;;;;7.00;3.23;;;;;;;17.69;nan;101233.25;6020802;23;20499;-91
2022/10/15 06:18:54;;;;;;;9.60;3.60;;;;;;;17.65;nan;101240.31;6020653;23;20412;-91
2022/10/15 06:21:22;;;;;;;5.60;3.30;;;;;;;17.60;nan;101242.88;5987039;23;20410;-91
2022/10/15 06:23:50;;;;;;;10.20;3.50;;;;;;;17.60;nan;101245.63;5964072;23;20466;-90
2022/10/15 06:26:19;;;;;;;12.23;3.60;;;;;;;17.56;nan;101238.88;5964566;23;20500;-91
2022/10/15 06:28:47;;;;;;;7.80;4.07;;;;;;;17.54;nan;101241.00;5963777;23;20414;-90
2022/10/15 06:31:15;;;;;;;12.70;3.20;;;;;;;17.49;nan;101233.44;5963814;23;20445;-90
2022/10/15 06:33:48;;;;;;;8.60;4.43;;;;;;;17.58;nan;101250.53;5978535;23;20409;-90
2022/10/15 06:40:28;;;;;;;12.80;3.00;;;;;;;17.39;nan;101244.13;5907951;24;20857;-90
2022/10/15 06:43:23;;;;;;;9.70;3.00;;;;;;;17.36;nan;101263.06;5853792;24;20446;-89
2022/10/15 06:55:00;;;;;;;43.70;5.73;;;;;;;17.11;nan;101247.38;5839632;24;20441;-90
2022/10/15 06:57:41;;;;;;;9.83;3.60;;;;;;;17.19;nan;101271.09;5796166;24;20409;-89
2022/10/15 07:00:55;;;;;;;10.33;3.63;;;;;;;16.99;nan;101251.91;5795976;24;20463;-89
2022/10/15 07:04:55;;;;;;;9.07;3.87;;;;;;;17.09;nan;101288.16;5824087;24;20438;-90
2022/10/15 07:07:21;;;;;;;12.63;3.50;;;;;;;17.06;nan;101291.38;5822429;24;20419;-90
2022/10/15 07:09:57;;;;;;;;;;;;;;;;;;;;;
2022/10/15 07:13:09;;;;;;;;;;;;;;;;;;;;;
2022/10/15 07:15:48;;;;;;;9.87;3.00;;;;;;;17.11;nan;101279.66;5714348;25;20538;-89
2022/10/15 07:18:39;;;;;;;9.70;2.83;;;;;;;17.11;nan;101279.66;5703629;25;20504;-90
2022/10/15 07:25:12;;;;;;;9.83;2.67;;;;;;;17.25;nan;101306.97;5740217;24;20396;-90
2022/10/15 07:28:03;;;;;;;13.50;3.50;;;;;;;17.15;nan;101276.22;5739057;24;20415;-90
2022/10/15 07:35:23;;;;;;;;;;;;;;;;;;;;;
2022/10/15 07:38:32;;;;;;;;;;;;;;;;;;;;;
2022/10/15 07:41:23;;;;;;;9.97;3.23;;;;;;;17.56;nan;101319.03;5749889;24;20510;-90
2022/10/15 07:44:04;;;;;;;10.50;3.57;;;;;;;17.57;nan;101316.03;5765708;24;20954;-90
2022/10/15 07:46:47;;;;;;;6.50;3.00;;;;;;;17.61;nan;101308.16;5745851;24;20753;-90
2022/10/15 07:49:28;;;;;;;10.40;3.13;;;;;;;17.69;nan;101307.06;5798289;24;20514;-90
2022/10/15 07:52:33;;;;;;;9.27;3.73;;;;;;;17.84;nan;101316.69;5864814;24;21035;-90
2022/10/15 07:55:00;;;;;;;7.67;3.00;;;;;;;17.94;nan;101311.47;5902280;24;20421;-89
2022/10/15 07:57:28;;;;;;;11.27;3.33;;;;;;;17.98;nan;101305.47;5903080;24;20483;-89
2022/10/15 07:59:56;;;;;;;10.03;3.83;;;;;;;18.09;nan;101316.63;5965549;23;20412;-88
2022/10/15 08:02:24;;;;;;;12.93;3.27;;;;;;;18.10;nan;101314.69;6056412;23;20414;-89
2022/10/15 08:04:52;;;;;;;10.80;4.40;;;;;;;18.18;nan;101318.03;6124015;23;20427;-89
2022/10/15 08:07:20;;;;;;;10.37;3.90;;;;;;;18.18;nan;101312.47;6075736;23;20517;-89
2022/10/15 08:09:47;;;;;;;12.80;3.33;;;;;;;18.34;nan;101329.53;6099793;23;20514;-89
2022/10/15 08:12:15;;;;;;;13.97;3.13;;;;;;;18.37;nan;101332.69;6099881;23;20509;-89
2022/10/15 08:14:43;;;;;;;8.83;3.20;;;;;;;18.38;nan;101322.47;6183322;23;20484;-89
2022/10/15 08:17:11;;;;;;;10.50;3.13;;;;;;;18.50;nan;101328.91;6170329;23;20873;-89
2022/10/15 08:19:39;;;;;;;8.50;2.87;;;;;;;18.56;nan;101331.63;6170655;23;20769;-90
2022/10/15 08:22:06;;;;;;;15.83;2.80;;;;;;;18.57;nan;101325.00;6195241;23;20406;-89
2022/10/15 08:24:34;;;;;;;7.70;2.70;;;;;;;18.67;nan;101334.69;6170651;23;20399;-90
2022/10/15 08:27:02;;;;;;;5.87;3.30;;;;;;;18.73;nan;101331.00;6194945;23;20410;-89
2022/10/15 08:29:30;;;;;;;6.20;2.67;;;;;;;18.92;nan;101350.13;6194805;23;20406;-89
2022/10/15 08:32:00;;;;;;;7.93;3.00;;;;;;;18.97;nan;101338.34;6170664;23;20552;-90
2022/10/15 08:34:27;;;;;;;7.70;2.77;;;;;;;18.98;nan;101335.34;6219660;23;20524;-90
2022/10/15 08:36:55;;;;;;;9.03;2.80;;;;;;;19.16;nan;101347.44;6170773;23;20413;-90
2022/10/15 08:39:23;;;;;;;11.20;3.23;;;;;;;19.30;nan;101352.56;6170885;23;20474;-90
2022/10/15 08:41:57;;;;;;;5.13;2.60;;;;;;;19.33;nan;101349.31;6170566;23;20406;-90
2022/10/15 08:44:27;;;;;;;13.83;2.97;;;;;;;19.48;nan;101356.34;6195842;23;20514;-89
2022/10/15 08:47:25;;;;;;;7.73;3.50;;;;;;;19.67;nan;101360.75;6170915;23;20850;-88
2022/10/15 08:49:57;;;;;;;8.13;2.63;;;;;;;19.76;nan;101359.31;6241028;23;20486;-90
2022/10/15 08:52:31;;;;;;;8.23;3.23;;;;;;;19.83;nan;101348.09;6171014;23;20442;-89
2022/10/15 08:55:00;;;;;;;11.60;3.33;;;;;;;19.99;nan;101362.13;6195780;23;20406;-89
2022/10/15 08:57:48;;;;;;;8.57;3.23;;;;;;;20.18;nan;101373.09;6194136;23;20873;-89
2022/10/15 09:00:19;;;;;;;10.10;4.70;;;;;;;20.28;nan;101365.81;6194749;23;20894;-88
2022/10/15 09:03:13;;;;;;;8.93;3.23;;;;;;;20.46;nan;101367.66;6194390;23;20456;-89
2022/10/15 09:05:56;;;;;;;12.07;2.80;;;;;;;20.60;nan;101366.28;6170014;23;20427;-88
2022/10/15 09:08:39;;;;;;;6.70;2.47;;;;;;;20.71;nan;101366.50;6169929;23;20407;-89
2022/10/15 09:11:34;;;;;;;5.53;2.40;;;;;;;20.89;nan;101374.69;6194215;23;20517;-89
2022/10/15 09:14:04;;;;;;;10.20;2.90;;;;;;;21.00;nan;101384.88;6218318;23;20490;-90
2022/10/15 09:16:34;;;;;;;6.57;2.20;;;;;;;20.98;nan;101368.47;6169050;23;20411;-89
2022/10/15 09:19:10;;;;;;;8.67;2.50;;;;;;;21.09;nan;101377.88;6194922;23;20410;-90
2022/10/15 09:21:43;;;;;;;8.60;2.50;;;;;;;21.22;nan;101383.16;6194687;23;20481;-89
2022/10/15 09:24:22;;;;;;;5.60;2.00;;;;;;;21.31;nan;101381.66;6153713;23;20476;-87
2022/10/15 09:27:19;;;;;;;5.50;1.70;;;;;;;21.51;nan;101388.69;6195042;23;20541;-90
2022/10/15 09:30:22;;;;;;;7.40;2.20;;;;;;;21.61;nan;101383.28;6219382;23;20402;-90
2022/10/15 09:33:01;;;;;;;9.70;2.80;;;;;;;21.74;nan;101387.72;6198450;23;20474;-91
2022/10/15 09:35:33;;;;;;;8.80;2.27;;;;;;;21.84;nan;101376.75;6220417;23;20436;-88
2022/10/15 09:38:13;;;;;;;5.37;2.00;;;;;;;21.99;nan;101380.59;6198180;23;20414;-89
2022/10/15 09:41:16;;;;;;;7.33;1.80;;;;;;;22.13;nan;101383.91;6221815;23;20482;-91
2022/10/15 09:43:47;;;;;;;5.30;2.27;;;;;;;22.19;nan;101379.28;6221662;23;20413;-89
2022/10/15 09:46:15;;;;;;;5.73;2.50;;;;;;;22.34;nan;101393.41;6197161;23;20937;-90
2022/10/15 09:49:27;;;;;;;5.40;1.40;;;;;;;22.40;nan;101392.41;6221875;23;20533;-88
2022/10/15 09:52:21;;;;;;;5.10;1.90;;;;;;;22.53;nan;101392.03;6231158;23;20442;-85
2022/10/15 09:55:02;;;;;;;4.77;2.27;;;;;;;22.64;nan;101382.72;6199874;23;20535;-87
2022/10/15 09:57:30;;;;;;;9.53;2.70;;;;;;;22.72;nan;101390.63;6172859;23;20403;-86
2022/10/15 10:00:02;;;;;;;4.50;1.70;;;;;;;22.78;nan;101396.28;6221298;23;20485;-86
2022/10/15 10:02:31;;;;;;;11.83;2.47;;;;;;;22.85;nan;101388.59;6172796;23;20552;-85
2022/10/15 10:05:44;;;;;;;9.30;1.90;;;;;;;22.90;nan;101381.09;6220022;23;20438;-86
2022/10/15 10:08:15;;;;;;;11.83;2.90;;;;;;;23.11;nan;101387.78;6226671;23;20413;-84
2022/10/15 10:10:42;;;;;;;16.23;1.90;;;;;;;23.19;nan;101384.53;6247654;23;20402;-85
2022/10/15 10:13:28;;;;;;;8.47;2.10;;;;;;;23.31;nan;101382.41;6219693;23;20816;-84
2022/10/15 10:15:55;;;;;;;5.20;1.70;;;;;;;23.39;nan;101379.16;6171356;23;20410;-83
2022/10/15 10:18:24;;;;;;;9.13;2.10;;;;;;;23.54;nan;101386.03;6220685;23;20485;-83
2022/10/15 10:21:00;;;;;;;8.27;2.60;;;;;;;23.65;nan;101388.66;6196245;23;20398;-84
2022/10/15 10:23:33;;;;;;;3.47;1.73;;;;;;;23.76;nan;101389.59;6197261;23;20417;-83
2022/10/15 10:26:03;;;;;;;5.97;1.60;;;;;;;23.88;nan;101395.81;6171875;23;20495;-83
2022/10/15 10:28:43;;;;;;;3.77;1.70;;;;;;;23.99;nan;101400.41;6196196;23;20398;-84
2022/10/15 10:31:11;;;;;;;5.70;2.20;;;;;;;24.07;nan;101402.69;6246664;23;20434;-84
2022/10/15 10:33:38;;;;;;;5.97;1.93;;;;;;;24.20;nan;101403.34;6195641;23;20409;-84
2022/10/15 10:36:06;;;;;;;7.93;2.00;;;;;;;24.25;nan;101395.84;6246714;23;20485;-84
2022/10/15 10:38:38;;;;;;;6.50;1.90;;;;;;;24.32;nan;101390.03;6195532;23;20717;-84
2022/10/15 10:41:08;;;;;;;12.97;1.87;;;;;;;24.36;nan;101383.66;6196019;23;20490;-83
2022/10/15 10:43:37;;;;;;;5.03;1.80;;;;;;;24.52;nan;101386.53;6220975;23;20707;-84
2022/10/15 10:46:14;;;;;;;7.20;1.80;;;;;;;24.61;nan;101380.16;6195583;23;20481;-85
2022/10/15 10:48:47;;;;;;;3.60;1.60;;;;;;;24.72;nan;101384.69;6219065;23;20433;-83
2022/10/15 10:51:25;;;;;;;5.60;1.90;;;;;;;24.86;nan;101382.22;6170771;23;21040;-83
2022/10/15 10:53:53;;;;;;;7.63;2.40;;;;;;;24.96;nan;101375.88;6195442;23;20517;-84
2022/10/15 10:56:42;;;;;;;5.13;1.63;;;;;;;25.08;nan;101380.09;6246905;23;20941;-84
2022/10/15 10:59:17;;;;;;;6.23;1.90;;;;;;;25.20;nan;101374.28;6220255;23;20485;-84
2022/10/15 11:01:46;;;;;;;7.80;2.40;;;;;;;25.26;nan;101364.75;6195906;23;20885;-84
2022/10/15 11:04:24;;;;;;;5.13;1.80;;;;;;;25.44;nan;101382.97;6220229;23;20514;-83
2022/10/15 11:06:57;;;;;;;10.50;2.50;;;;;;;25.53;nan;101374.88;6196841;23;20968;-83
2022/10/15 11:09:48;;;;;;;7.87;3.17;;;;;;;25.55;nan;101381.03;6219639;23;20479;-84
2022/10/15 11:12:47;;;;;;;6.50;3.07;;;;;;;25.55;nan;101375.44;6221144;23;20435;-84
2022/10/15 11:15:26;;;;;;;9.70;3.27;;;;;;;25.51;nan;101369.56;6246529;23;20805;-84
2022/10/15 11:18:25;;;;;;;12.90;4.30;;;;;;;25.46;nan;101370.38;6220080;23;20489;-84
2022/10/15 11:20:55;;;;;;;11.20;4.43;;;;;;;25.52;nan;101367.59;6220316;23;20477;-84
2022/10/15 11:23:39;;;;;;;11.27;3.50;;;;;;;25.58;nan;101372.09;6246820;23;20417;-83
2022/10/15 11:26:15;;;;;;;8.50;4.17;;;;;;;25.59;nan;101368.19;6246308;23;20489;-84
2022/10/15 11:29:12;;;;;;;8.43;3.13;;;;;;;25.64;nan;101376.59;6246654;23;20489;-84
2022/10/15 11:32:03;;;;;;;6.87;2.33;;;;;;;25.72;nan;101365.69;6246464;23;20435;-85
2022/10/15 11:35:13;;;;;;;5.10;2.90;;;;;;;25.83;nan;101369.31;6222339;23;20407;-86
2022/10/15 11:38:08;;;;;;;8.80;2.33;;;;;;;25.95;nan;101366.25;6245932;23;20485;-86
2022/10/15 11:41:12;;;;;;;5.03;2.17;;;;;;;26.04;nan;101359.78;6246724;23;20734;-87
2022/10/15 11:44:17;;;;;;;8.47;2.70;;;;;;;26.13;nan;101358.09;6199679;23;20501;-87
2022/10/15 11:47:25;;;;;;;10.47;2.60;;;;;;;26.24;nan;101358.06;6219878;23;20486;-88
2022/10/15 11:50:24;;;;;;;9.90;2.70;;;;;;;26.37;nan;101355.53;6219806;23;20894;-87
2022/10/15 11:53:10;;;;;;;6.67;4.10;;;;;;;26.49;nan;101350.47;6195422;23;20757;-88
2022/10/15 11:55:41;;;;;;;11.30;4.60;;;;;;;26.58;nan;101333.03;6219542;23;20395;-87
2022/10/15 11:58:21;;;;;;;11.80;3.67;;;;;;;26.68;nan;101342.25;6195070;23;20491;-87
2022/10/15 12:00:50;;;;;;;57.93;24.10;;;;;;;26.68;nan;101335.81;6195700;23;20402;-87
2022/10/15 12:03:28;;;;;;;143.93;59.03;;;;;;;26.75;nan;101344.75;6170450;23;20456;-87
2022/10/15 12:05:58;;;;;;;22.77;9.23;;;;;;;26.89;nan;101344.97;6164822;23;20407;-88
2022/10/15 12:08:30;;;;;;;126.03;45.50;;;;;;;26.94;nan;101347.78;6123570;23;20414;-87
2022/10/15 12:11:39;;;;;;;12.23;4.27;;;;;;;26.99;nan;101339.34;6100371;23;20478;-87
2022/10/15 12:14:30;;;;;;;6.80;2.50;;;;;;;27.00;nan;101326.97;6099524;23;20497;-87
2022/10/15 12:17:15;;;;;;;6.87;2.60;;;;;;;26.98;nan;101334.84;6123438;23;20489;-87
2022/10/15 12:19:44;;;;;;;6.13;2.20;;;;;;;26.94;nan;101328.97;6099660;23;20421;-87
2022/10/15 12:22:12;;;;;;;4.03;1.70;;;;;;;26.87;nan;101324.78;6099853;23;20481;-87
2022/10/15 12:25:16;;;;;;;7.60;2.30;;;;;;;26.97;nan;101330.34;6074352;23;20410;-87
2022/10/15 12:28:13;;;;;;;7.33;2.50;;;;;;;26.93;nan;101324.47;6118674;23;20407;-85
2022/10/15 12:30:42;;;;;;;3.90;1.70;;;;;;;26.94;nan;101316.91;6097820;23;20526;-87
2022/10/15 12:33:46;;;;;;;3.50;1.57;;;;;;;26.97;nan;101311.56;6147262;23;20439;-87
2022/10/15 12:36:28;;;;;;;6.53;1.60;;;;;;;26.97;nan;101307.91;6164419;23;20738;-86
2022/10/15 12:39:03;;;;;;;6.50;1.87;;;;;;;27.00;nan;101310.97;6165798;23;20403;-86
2022/10/15 12:41:40;;;;;;;5.93;1.60;;;;;;;26.87;nan;101317.22;6213397;23;20407;-86
2022/10/15 12:44:46;;;;;;;3.80;1.57;;;;;;;26.98;nan;101318.00;6165077;23;20487;-87
2022/10/15 12:47:14;;;;;;;6.87;2.10;;;;;;;27.02;nan;101307.88;6104271;23;20413;-86
2022/10/15 12:49:41;;;;;;;7.90;1.80;;;;;;;;;;6123524;23;20398;-86
2022/10/15 12:52:27;;;;;;;4.97;1.80;;;;;;;;;;6128191;23;20437;-86
2022/10/15 12:54:54;;;;;;;6.13;1.97;;;;;;;;;;6151747;23;20777;-88
2022/10/15 12:57:30;;;;;;;14.07;2.70;;;;;;;;;;6153467;23;20480;-86
2022/10/15 12:59:58;;;;;;;4.50;1.70;;;;;;;;;;6153045;23;20448;-86
2022/10/15 13:02:54;;;;;;;7.40;2.60;;;;;;;;;;6127689;23;20463;-86
2022/10/15 13:05:31;;;;;;;5.50;1.97;;;;;;;;;;6152215;23;20433;-87
2022/10/15 13:07:59;;;;;;;6.70;2.00;;;;;;;;;;6152788;23;20412;-86
2022/10/15 13:10:33;;;;;;;6.23;1.63;;;;;;;;;;6153613;23;20393;-87
2022/10/15 13:13:04;;;;;;;44.93;7.10;;;;;;;;;;6130627;23;20516;-88
2022/10/15 13:15:31;;;;;;;16.03;2.93;;;;;;;;;;6130651;23;20405;-87
2022/10/15 13:17:59;;;;;;;19.50;2.67;;;;;;;;;;6130738;23;20390;-87
2022/10/15 13:23:33;;;;;;;10.30;2.87;;;;;;;;;;6249892;23;20412;-95
2022/10/15 13:28:59;;;;;;;5.93;1.77;;;;;;;;;;6254225;23;20433;-91
2022/10/15 13:31:33;;;;;;;49.77;5.20;;;;;;;;;;6196857;23;20398;-94
2022/10/15 13:34:19;;;;;;;9.13;2.27;;;;;;;;;;6222013;23;20448;-95
2022/10/15 13:36:47;;;;;;;4.67;2.10;;;;;;;;;;6249187;23;20465;-92
2022/10/15 13:39:33;;;;;;;10.13;1.97;;;;;;;;;;6197963;23;20387;-91
2022/10/15 13:42:14;;;;;;;13.73;2.40;;;;;;;;;;6222421;23;20402;-90
2022/10/15 13:44:42;;;;;;;6.43;1.60;;;;;;;;;;6221738;23;20905;-88
2022/10/15 13:47:23;;;;;;;8.17;2.10;;;;;;;;;;6196289;23;20441;-89
2022/10/15 13:50:12;;;;;;;3.97;1.60;;;;;;;;;;6196650;23;20448;-89
2022/10/15 13:52:44;;;;;;;4.10;1.20;;;;;;;;;;6220328;23;20440;-90
2022/10/15 13:55:15;;;;;;;15.90;2.10;;;;;;;;;;6221725;23;20397;-89
2022/10/15 13:57:46;;;;;;;7.03;1.70;;;;;;;;;;6195959;23;20398;-89
2022/10/15 14:00:20;;;;;;;7.67;1.73;;;;;;;;;;6196222;23;20441;-89
2022/10/15 14:03:09;;;;;;;4.00;2.20;;;;;;;;;;6195885;23;20400;-89
2022/10/15 14:05:36;;;;;;;5.80;1.50;;;;;;;;;;6200489;23;20438;-89
2022/10/15 14:08:05;;;;;;;4.83;1.70;;;;;;;;;;6196507;23;20380;-88
2022/10/15 14:10:32;;;;;;;6.73;1.53;;;;;;;;;;6221597;23;20389;-89